createdAt,value
2024-03-05T00:01:26.468Z,48.65
2024-03-05T00:06:31.909Z,48.82
2024-03-05T00:11:35.801Z,48.46
2024-03-05T00:16:39.894Z,48.80
2024-03-05T00:21:45.407Z,48.61
2024-03-05T00:26:49.285Z,48.41
2024-03-05T00:31:53.587Z,48.88
2024-03-05T00:36:59.253Z,48.76
2024-03-05T00:42:05.218Z,48.87
2024-03-05T00:47:09.116Z,48.97
2024-03-05T00:52:15.256Z,48.91
2024-03-05T00:57:19.152Z,49.42
2024-03-05T01:02:24.169Z,49.44
2024-03-05T01:07:29.745Z,49.24
2024-03-05T01:12:33.680Z,49.75
2024-03-05T01:17:37.874Z,49.28
2024-03-05T01:22:43.556Z,49.80
2024-03-05T01:27:47.550Z,50.08
2024-03-05T01:32:53.063Z,50.21
2024-03-05T01:37:58.443Z,50.12
2024-03-05T01:43:02.381Z,50.71
2024-03-05T01:48:07.367Z,50.09
2024-03-05T01:53:16.904Z,50.55
2024-03-05T01:58:21.226Z,50.96
2024-03-05T02:03:25.335Z,50.46
2024-03-05T02:08:31.113Z,50.58
2024-03-05T02:13:35.724Z,50.43
2024-03-05T02:18:39.583Z,51.07
2024-03-05T02:23:44.837Z,50.96
2024-03-05T02:28:50.361Z,50.92
2024-03-05T02:33:55.478Z,51.10
2024-03-05T02:39:00.748Z,50.66
2024-03-05T02:44:05.599Z,51.30
2024-03-05T02:49:10.430Z,50.69
2024-03-05T02:54:15.678Z,51.57
2024-03-05T02:59:20.162Z,51.73
2024-03-05T03:04:24.291Z,51.54
2024-03-05T03:09:30.260Z,51.38
2024-03-05T03:14:34.510Z,51.65
2024-03-05T03:19:39.121Z,51.77
2024-03-05T03:24:44.831Z,51.90
2024-03-05T03:29:48.952Z,52.03
2024-03-05T03:34:53.609Z,52.22
2024-03-05T03:39:58.881Z,51.82
2024-03-05T03:45:02.835Z,52.36
2024-03-05T03:50:09.053Z,52.29
2024-03-05T03:55:14.811Z,52.72
2024-03-05T04:00:20.423Z,53.06
2024-03-05T04:05:26.131Z,53.50
2024-03-05T04:10:31.519Z,54.22
2024-03-05T04:15:35.446Z,55.09
2024-03-05T04:20:39.295Z,55.95
2024-03-05T04:25:45.344Z,56.38
2024-03-05T04:30:50.200Z,55.85
2024-03-05T04:35:54.317Z,56.85
2024-03-05T04:40:59.562Z,56.82
2024-03-05T04:46:03.729Z,57.10
2024-03-05T04:51:11.195Z,57.47
2024-03-05T04:56:16.656Z,57.42
2024-03-05T05:01:20.628Z,57.76
2024-03-05T05:06:24.536Z,57.37
2024-03-05T05:11:30.326Z,57.69
2024-03-05T05:16:34.483Z,57.31
2024-03-05T05:21:38.628Z,56.77
2024-03-05T05:26:47.949Z,56.92
2024-03-05T05:31:51.919Z,57.08
2024-03-05T05:36:56.159Z,56.95
2024-03-05T05:42:01.733Z,56.90
2024-03-05T05:47:06.423Z,57.25
2024-03-05T05:52:10.702Z,57.00
2024-03-05T05:57:16.153Z,57.06
2024-03-05T06:02:21.533Z,56.54
2024-03-05T06:07:25.919Z,56.59
2024-03-05T06:12:32.947Z,56.77
2024-03-05T06:17:36.941Z,56.53
2024-03-05T06:22:41.603Z,56.45
2024-03-05T06:28:04.080Z,56.07
2024-03-05T06:33:10.529Z,55.55
2024-03-05T06:38:14.763Z,55.68
2024-03-05T06:43:22.822Z,55.92
2024-03-05T06:48:28.314Z,55.69
2024-03-05T06:53:49.855Z,55.49
2024-03-05T06:58:54.838Z,55.46
2024-03-05T07:04:00.589Z,55.28
2024-03-05T07:09:05.162Z,54.92
2024-03-05T07:14:09.589Z,54.37
2024-03-05T07:19:15.295Z,54.38
2024-03-05T07:24:19.291Z,53.81
2024-03-05T07:29:23.204Z,53.60
2024-03-05T07:34:28.582Z,52.89
2024-03-05T07:39:33.075Z,53.01
2024-03-05T07:44:39.015Z,52.39
2024-03-05T07:49:44.301Z,51.74
2024-03-05T07:54:48.539Z,51.50
2024-03-05T08:00:15.648Z,50.27
2024-03-05T08:05:22.713Z,50.55
2024-03-05T08:10:27.332Z,50.27
2024-03-05T08:15:31.490Z,50.29
2024-03-05T08:20:36.941Z,49.86
2024-03-05T08:25:58.481Z,49.80
2024-03-05T08:31:02.486Z,49.60
2024-03-05T08:36:10.078Z,47.97
2024-03-05T08:41:13.973Z,48.21
2024-03-05T08:46:17.977Z,47.58
2024-03-05T08:51:23.437Z,47.07
2024-03-05T08:56:27.345Z,47.39
2024-03-05T09:01:31.315Z,46.80
2024-03-05T09:06:37.061Z,47.17
2024-03-05T09:11:41.065Z,46.92
2024-03-05T09:16:45.350Z,46.79
2024-03-05T09:21:52.124Z,45.70
2024-03-05T09:26:56.041Z,45.62
2024-03-05T09:31:59.944Z,45.36
2024-03-05T09:37:05.382Z,45.53
2024-03-05T09:42:12.049Z,44.55
2024-03-05T09:47:17.735Z,43.96
2024-03-05T09:52:23.158Z,43.66
2024-03-05T09:57:30.382Z,43.43
2024-03-05T10:02:35.057Z,43.04
2024-03-05T10:07:40.770Z,43.45
2024-03-05T10:12:45.069Z,42.70
2024-03-05T10:17:51.681Z,42.36
2024-03-05T10:22:59.924Z,41.65
2024-03-05T10:28:05.627Z,41.27
2024-03-05T10:33:11.708Z,40.65
2024-03-05T10:38:19.500Z,41.23
2024-03-05T10:43:23.716Z,40.36
2024-03-05T10:48:28.854Z,40.76
2024-03-05T10:53:34.852Z,41.03
2024-03-05T10:58:56.716Z,42.26
2024-03-05T11:04:03.060Z,42.37
2024-03-05T11:09:09.601Z,41.52
2024-03-05T11:14:15.379Z,41.69
2024-03-05T11:19:19.726Z,41.83
2024-03-05T11:24:26.276Z,41.18
2024-03-05T11:29:38.784Z,41.77
2024-03-05T11:34:49.483Z,41.19
2024-03-05T11:39:54.902Z,41.40
2024-03-05T11:44:59.066Z,41.65
2024-03-05T11:50:06.688Z,41.45
2024-03-05T11:55:27.688Z,41.22
2024-03-05T12:00:31.605Z,41.81
2024-03-05T12:05:35.734Z,41.86
2024-03-05T12:10:42.381Z,41.90
2024-03-05T12:15:46.853Z,42.51
2024-03-05T12:20:50.836Z,42.30
2024-03-05T12:25:56.145Z,42.59
2024-03-05T12:31:00.268Z,42.86
2024-03-05T12:36:04.267Z,42.33
2024-03-05T12:41:11.224Z,42.50
2024-03-05T12:46:20.782Z,42.31
2024-03-05T12:51:24.968Z,42.76
2024-03-05T12:56:30.484Z,42.75
2024-03-05T13:01:34.463Z,42.45
2024-03-05T13:06:38.450Z,42.16
2024-03-05T13:11:44.423Z,42.51
2024-03-05T13:16:48.639Z,42.18
2024-03-05T13:21:52.945Z,42.55
2024-03-05T13:26:58.985Z,42.24
2024-03-05T13:32:03.024Z,42.59
2024-03-05T13:37:07.005Z,43.28
2024-03-05T13:42:12.688Z,43.08
2024-03-05T13:47:18.731Z,42.91
2024-03-05T13:52:24.159Z,43.05
2024-03-05T13:57:30.324Z,43.29
2024-03-05T14:02:34.438Z,43.58
2024-03-05T14:07:38.632Z,44.08
2024-03-05T14:12:44.137Z,44.35
2024-03-05T14:17:48.453Z,43.87
2024-03-05T14:22:52.531Z,44.80
2024-03-05T14:27:57.889Z,45.04
2024-03-05T14:33:56.191Z,44.94
2024-03-05T14:39:04.588Z,44.93
2024-03-05T14:44:12.445Z,44.52
2024-03-05T14:49:16.794Z,44.89
2024-03-05T14:54:20.732Z,44.92
2024-03-05T14:59:26.534Z,45.49
2024-03-05T15:04:30.722Z,45.72
2024-03-05T15:09:37.162Z,45.29
2024-03-05T15:14:44.359Z,45.33
2024-03-05T15:19:51.156Z,46.35
2024-03-05T15:24:55.007Z,45.70
2024-03-05T15:30:00.389Z,46.81
2024-03-05T15:35:04.986Z,47.01
2024-03-05T15:40:16.865Z,46.95
2024-03-05T15:45:23.017Z,47.38
2024-03-05T15:50:31.512Z,47.47
2024-03-05T15:55:40.507Z,47.93
2024-03-05T16:00:49.674Z,47.94
2024-03-05T16:06:00.782Z,47.60
2024-03-05T16:11:10.780Z,47.40
2024-03-05T16:16:17.169Z,47.04
2024-03-05T16:21:40.659Z,47.13
2024-03-05T16:26:46.205Z,48.18
2024-03-05T16:31:51.548Z,47.97
2024-03-05T16:36:55.465Z,47.84
2024-03-05T16:41:59.305Z,47.79
2024-03-05T16:47:04.878Z,47.83
2024-03-05T16:52:09.131Z,48.02
2024-03-05T16:57:13.182Z,48.08
2024-03-05T17:02:24.089Z,47.86
2024-03-05T17:07:32.751Z,48.15
2024-03-05T17:12:39.027Z,48.49
2024-03-05T17:17:56.034Z,48.93
2024-03-05T17:23:04.697Z,48.52
2024-03-05T17:28:13.595Z,48.56
2024-03-05T17:33:19.449Z,48.52
2024-03-05T17:38:23.419Z,48.47
2024-03-05T17:43:29.742Z,48.35
2024-03-05T17:48:35.913Z,48.35
2024-03-05T17:53:40.999Z,48.28
2024-03-05T17:58:45.757Z,48.51
2024-03-05T18:03:51.202Z,48.40
2024-03-05T18:08:55.859Z,48.61
2024-03-05T18:14:00.857Z,48.76
2024-03-05T18:19:09.024Z,49.12
2024-03-05T18:24:13.774Z,49.03
2024-03-05T18:29:18.090Z,48.92
2024-03-05T18:34:25.488Z,48.66
2024-03-05T18:39:29.480Z,49.11
2024-03-05T18:44:33.378Z,49.43
2024-03-05T18:49:43.626Z,50.06
2024-03-05T18:54:47.766Z,49.90
2024-03-05T18:59:51.993Z,50.67
2024-03-05T19:05:06.809Z,51.11
2024-03-05T19:10:14.155Z,51.11
2024-03-05T19:15:18.942Z,51.04
2024-03-05T19:20:24.701Z,51.46
2024-03-05T19:25:29.765Z,51.15
2024-03-05T19:30:39.628Z,51.36
2024-03-05T19:35:45.501Z,52.06
2024-03-05T19:40:50.226Z,52.20
2024-03-05T19:45:54.291Z,51.78
2024-03-05T19:50:59.549Z,52.61
2024-03-05T19:56:05.344Z,52.37
2024-03-05T20:01:09.740Z,52.03
2024-03-05T20:06:15.130Z,52.09
2024-03-05T20:11:19.590Z,51.96
2024-03-05T20:16:23.544Z,52.27
2024-03-05T20:21:28.924Z,52.45
2024-03-05T20:26:33.019Z,53.08
2024-03-05T20:31:37.047Z,53.43
2024-03-05T20:36:42.523Z,53.45
2024-03-05T20:41:47.484Z,53.87
2024-03-05T20:46:51.371Z,53.89
2024-03-05T20:51:58.369Z,53.46
2024-03-05T20:57:02.555Z,53.82
2024-03-05T21:02:11.151Z,53.57
2024-03-05T21:07:16.820Z,53.95
2024-03-05T21:12:20.665Z,54.10
2024-03-05T21:17:26.250Z,54.12
2024-03-05T21:22:31.619Z,54.24
2024-03-05T21:27:36.418Z,54.49
2024-03-05T21:32:40.759Z,54.90
2024-03-05T21:37:47.696Z,54.74
2024-03-05T21:42:51.634Z,54.89
2024-03-05T21:47:55.569Z,55.50
2024-03-05T21:53:00.908Z,54.98
2024-03-05T21:58:05.145Z,55.27
2024-03-05T22:03:09.586Z,55.43
2024-03-05T22:08:15.002Z,56.00
2024-03-05T22:13:19.258Z,55.85
2024-03-05T22:18:23.157Z,55.57
2024-03-05T22:23:28.489Z,55.51
2024-03-05T22:28:32.693Z,56.25
2024-03-05T22:33:36.606Z,56.04
2024-03-05T22:38:41.882Z,55.93
2024-03-05T22:43:46.498Z,56.27
2024-03-05T22:48:50.502Z,56.60
2024-03-05T22:53:55.741Z,55.81
2024-03-05T22:58:59.918Z,56.09
2024-03-05T23:04:03.866Z,56.24
2024-03-05T23:09:13.698Z,55.79
2024-03-05T23:14:18.269Z,56.41
2024-03-05T23:19:22.304Z,56.35
2024-03-05T23:24:27.581Z,56.02
2024-03-05T23:29:31.504Z,55.83
2024-03-05T23:34:35.902Z,56.49
2024-03-05T23:39:41.735Z,56.67
2024-03-05T23:44:45.926Z,56.42
2024-03-05T23:49:50.041Z,56.79
2024-03-05T23:54:58.134Z,56.92
